Time;durP1;ratioP1;P1;durP2;ratioP2;P2;SDS_P1;SDS_P2;PMS_P1;PMS_P2;Temp;Humidity;BMP_temperature;BMP_pressure;BME280_temperature;BME280_humidity;BME280_pressure;Samples;Min_cycle;Max_cycle;Signal;HPM_P1;HPM_P2
2020/12/16 00:00:16;;;;;;;104.70;42.95;;;;;;;7.85;100.00;101195.72;5002211;28;20041;-84
2020/12/16 00:02:44;;;;;;;102.10;42.72;;;;;;;7.85;100.00;101203.72;5001269;28;20096;-84
2020/12/16 00:05:11;;;;;;;97.63;41.63;;;;;;;7.88;100.00;101205.25;5001368;28;20046;-87
2020/12/16 00:07:40;;;;;;;103.72;42.53;;;;;;;7.85;100.00;101205.53;4989403;28;20068;-86
2020/12/16 00:10:08;;;;;;;108.28;43.58;;;;;;;7.85;100.00;101203.72;5003118;28;20034;-86
2020/12/16 00:12:39;;;;;;;107.78;42.58;;;;;;;7.86;100.00;101202.72;5003651;28;20057;-85
2020/12/16 00:15:06;;;;;;;106.47;45.60;;;;;;;7.86;100.00;101197.38;5010113;28;20069;-86
2020/12/16 00:17:32;;;;;;;105.45;42.47;;;;;;;7.88;100.00;101205.25;5000634;28;20035;-85
2020/12/16 00:19:57;;;;;;;105.95;44.80;;;;;;;7.86;100.00;101200.06;5000644;28;20393;-86
2020/12/16 00:22:23;;;;;;;117.70;48.15;;;;;;;7.88;100.00;101206.13;4985742;28;20082;-85
2020/12/16 00:24:48;;;;;;;118.68;48.53;;;;;;;7.88;100.00;101206.13;4981381;28;20042;-85
2020/12/16 00:27:14;;;;;;;118.13;47.67;;;;;;;7.86;100.00;101204.56;4990582;28;20046;-84
2020/12/16 00:29:39;;;;;;;122.97;47.80;;;;;;;7.86;100.00;101201.88;5006886;28;20061;-87
2020/12/16 00:32:05;;;;;;;122.93;50.78;;;;;;;7.86;100.00;101199.22;4987929;28;20065;-86
2020/12/16 00:34:31;;;;;;;121.40;49.60;;;;;;;7.86;100.00;101201.88;5005825;28;20038;-87
2020/12/16 00:36:56;;;;;;;135.85;49.97;;;;;;;7.85;100.00;101201.06;4984917;28;20061;-84
2020/12/16 00:39:21;;;;;;;130.52;53.15;;;;;;;7.85;100.00;101198.38;5006845;28;20145;-87
2020/12/16 00:41:47;;;;;;;128.80;53.90;;;;;;;7.85;100.00;101194.84;5011789;28;20518;-84
2020/12/16 00:44:12;;;;;;;132.27;50.03;;;;;;;7.82;100.00;101197.78;4973232;28;20492;-88
2020/12/16 00:46:37;;;;;;;133.85;53.15;;;;;;;7.80;100.00;101200.59;4979609;28;20482;-85
2020/12/16 00:49:03;;;;;;;130.18;53.78;;;;;;;7.79;100.00;101201.56;4994072;28;20034;-86
2020/12/16 00:51:28;;;;;;;124.28;49.05;;;;;;;7.78;100.00;101199.06;4995033;28;20077;-84
2020/12/16 00:53:54;;;;;;;128.65;52.83;;;;;;;7.77;100.00;101190.19;4995406;28;20067;-85
2020/12/16 00:56:19;;;;;;;124.03;49.10;;;;;;;7.74;100.00;101192.28;5004835;28;20475;-85
2020/12/16 00:58:45;;;;;;;136.32;52.60;;;;;;;7.74;100.00;101190.47;4978842;28;20042;-84
2020/12/16 01:01:10;;;;;;;120.40;49.40;;;;;;;7.74;100.00;101189.59;4994801;28;20045;-83
2020/12/16 01:03:35;;;;;;;122.63;47.50;;;;;;;7.71;100.00;101182.72;4992722;28;20105;-85
2020/12/16 01:06:01;;;;;;;119.15;50.38;;;;;;;7.69;100.00;101182.84;4998695;28;20096;-84
2020/12/16 01:08:26;;;;;;;126.80;50.83;;;;;;;7.69;100.00;101182.84;4972960;28;20043;-84
2020/12/16 01:10:52;;;;;;;128.57;50.03;;;;;;;7.67;100.00;101186.63;4991514;28;20088;-87
2020/12/16 01:13:17;;;;;;;127.30;51.00;;;;;;;7.67;100.00;101197.31;5009562;28;20431;-87
2020/12/16 01:15:42;;;;;;;126.00;51.85;;;;;;;7.68;100.00;101201.66;4995408;28;20045;-88
2020/12/16 01:18:08;;;;;;;120.28;47.75;;;;;;;7.64;100.00;101203.78;4990120;28;20030;-85
2020/12/16 01:20:33;;;;;;;120.28;48.47;;;;;;;7.62;100.00;101211.09;4974849;28;20130;-84
2020/12/16 01:22:59;;;;;;;130.65;49.55;;;;;;;7.61;100.00;101211.22;5009109;28;20042;-87
2020/12/16 01:25:24;;;;;;;131.15;52.65;;;;;;;7.60;100.00;101214.88;4994624;28;20096;-85
2020/12/16 01:27:59;;;;;;;130.23;51.35;;;;;;;7.59;100.00;101214.00;4993949;28;20038;-86
2020/12/16 01:30:24;;;;;;;143.18;56.63;;;;;;;7.57;100.00;101217.81;4993350;28;20239;-87
2020/12/16 01:32:51;;;;;;;150.73;57.75;;;;;;;7.58;100.00;101231.03;4988242;28;20125;-88
2020/12/16 01:35:16;;;;;;;148.73;58.65;;;;;;;7.57;100.00;101233.84;5009603;28;20049;-84
2020/12/16 01:37:42;;;;;;;134.88;51.53;;;;;;;7.55;100.00;101231.28;4994854;28;20042;-82
2020/12/16 01:40:09;;;;;;;134.68;52.60;;;;;;;7.56;100.00;101232.13;4978974;28;20048;-87
2020/12/16 01:42:35;;;;;;;128.98;51.03;;;;;;;7.53;100.00;101232.41;5011145;28;20058;-84
2020/12/16 01:45:05;;;;;;;141.45;54.90;;;;;;;7.55;100.00;101235.81;4994351;28;20064;-85
2020/12/16 01:47:31;;;;;;;135.43;55.90;;;;;;;7.53;100.00;101221.72;4986148;28;20392;-83
2020/12/16 01:49:56;;;;;;;135.63;53.30;;;;;;;7.52;100.00;101228.91;4978236;28;20040;-85
2020/12/16 01:52:23;;;;;;;141.63;52.45;;;;;;;7.52;100.00;101236.91;4979427;28;20046;-84
2020/12/16 01:54:52;;;;;;;161.65;62.28;;;;;;;7.51;100.00;101229.00;5011388;28;20496;-83
2020/12/16 01:57:18;;;;;;;145.63;58.08;;;;;;;7.53;100.00;101235.06;4993759;28;20049;-86
2020/12/16 01:59:46;;;;;;;155.32;61.15;;;;;;;7.51;100.00;101235.22;5009533;28;20253;-87
2020/12/16 02:02:14;;;;;;;163.02;59.95;;;;;;;7.52;100.00;101228.91;4996006;28;20058;-88
2020/12/16 02:04:42;;;;;;;155.85;61.03;;;;;;;7.51;100.00;101231.69;4987480;28;20038;-86
2020/12/16 02:07:10;;;;;;;163.27;63.35;;;;;;;7.51;100.00;101234.34;4989358;28;20030;-87
2020/12/16 02:09:44;;;;;;;158.48;61.17;;;;;;;7.51;100.00;101239.69;5004268;28;20034;-85
2020/12/16 02:12:22;;;;;;;165.65;65.15;;;;;;;7.51;100.00;101240.56;4995092;28;20121;-84
2020/12/16 02:14:48;;;;;;;166.90;68.73;;;;;;;7.51;100.00;101239.69;4974295;28;20039;-89
2020/12/16 02:17:13;;;;;;;163.40;65.07;;;;;;;7.49;100.00;101244.34;4989658;28;20537;-87
2020/12/16 02:20:00;;;;;;;164.68;62.40;;;;;;;7.46;100.00;101227.59;4988775;28;20492;-87
2020/12/16 02:22:26;;;;;;;137.82;59.20;;;;;;;7.44;100.00;101236.72;5006761;28;20473;-86
2020/12/16 02:25:11;;;;;;;158.55;60.78;;;;;;;7.42;100.00;101234.19;5007681;28;20042;-86
2020/12/16 02:27:38;;;;;;;150.25;61.70;;;;;;;7.41;100.00;101232.50;5002801;28;20404;-87
2020/12/16 02:30:06;;;;;;;152.00;63.25;;;;;;;7.41;100.00;101248.50;4996345;28;20041;-83
2020/12/16 02:32:32;;;;;;;148.57;64.38;;;;;;;7.43;100.00;101251.91;4992954;28;20038;-86
2020/12/16 02:34:57;;;;;;;152.85;65.13;;;;;;;7.43;100.00;101259.91;4992950;28;20091;-86
2020/12/16 02:37:24;;;;;;;150.93;64.35;;;;;;;7.42;100.00;101255.56;5009081;28;20057;-85
2020/12/16 02:39:50;;;;;;;138.85;59.05;;;;;;;7.42;100.00;101258.25;5006500;28;20384;-84
2020/12/16 02:42:24;;;;;;;147.75;62.58;;;;;;;7.42;100.00;101255.56;5004503;28;20038;-86
2020/12/16 02:44:50;;;;;;;145.20;62.38;;;;;;;7.43;100.00;101253.75;4999001;28;20045;-86
2020/12/16 02:47:15;;;;;;;141.32;61.78;;;;;;;7.42;100.00;101252.03;4992751;28;20528;-87
2020/12/16 02:49:41;;;;;;;149.07;62.42;;;;;;;7.40;100.00;101257.50;4992723;28;20180;-88
2020/12/16 02:52:06;;;;;;;141.88;61.88;;;;;;;7.40;100.00;101259.34;4977731;28;20049;-85
2020/12/16 02:54:32;;;;;;;148.48;63.53;;;;;;;7.40;100.00;101254.84;4992335;28;20095;-86
2020/12/16 02:56:58;;;;;;;146.48;64.10;;;;;;;7.41;100.00;101255.69;4990130;28;20070;-85
2020/12/16 02:59:26;;;;;;;138.02;62.10;;;;;;;7.39;100.00;101253.16;4973646;28;20519;-85
2020/12/16 03:01:55;;;;;;;121.43;55.40;;;;;;;7.39;100.00;101253.16;5000413;28;20049;-86
2020/12/16 03:04:22;;;;;;;121.20;59.15;;;;;;;7.38;100.00;101251.44;4971904;28;20500;-84
2020/12/16 03:06:54;;;;;;;116.78;55.85;;;;;;;7.34;100.00;101239.34;5005689;28;20049;-88
2020/12/16 03:09:21;;;;;;;112.72;55.30;;;;;;;7.32;100.00;101238.63;5006294;28;20188;-87
2020/12/16 03:11:50;;;;;;;117.90;55.08;;;;;;;7.33;100.00;101231.47;4997413;28;20053;-86
2020/12/16 03:14:15;;;;;;;114.60;54.05;;;;;;;7.31;100.00;101239.63;4988339;28;20072;-84
2020/12/16 03:16:40;;;;;;;101.95;48.45;;;;;;;7.29;100.00;101244.25;4998945;28;20465;-84
2020/12/16 03:19:07;;;;;;;102.18;49.00;;;;;;;7.28;100.00;101250.56;4987594;28;20038;-83
2020/12/16 03:21:33;;;;;;;102.00;48.42;;;;;;;7.26;100.00;101265.03;4988040;28;20096;-84
2020/12/16 03:23:59;;;;;;;116.72;54.22;;;;;;;7.24;100.00;101265.97;4973022;28;20042;-83
2020/12/16 03:26:24;;;;;;;103.65;49.08;;;;;;;7.24;100.00;101265.97;4996949;28;20080;-86
2020/12/16 03:28:50;;;;;;;101.95;47.80;;;;;;;7.23;100.00;101263.47;5004211;28;20422;-86
2020/12/16 03:31:16;;;;;;;106.82;49.78;;;;;;;7.19;100.00;101260.22;4987847;28;20042;-83
2020/12/16 03:33:45;;;;;;;98.13;46.03;;;;;;;7.18;100.00;101269.19;4987534;28;20042;-85
2020/12/16 03:36:19;;;;;;;106.53;48.95;;;;;;;7.18;100.00;101260.31;4987435;28;20034;-82
2020/12/16 03:38:46;;;;;;;106.78;51.28;;;;;;;7.16;100.00;101255.13;5004319;28;20142;-86
2020/12/16 03:41:15;;;;;;;107.10;49.72;;;;;;;7.15;100.00;101249.91;4987789;28;20408;-86
2020/12/16 03:43:42;;;;;;;97.97;48.13;;;;;;;7.13;100.00;101249.19;4989887;28;20591;-87
2020/12/16 03:46:11;;;;;;;98.93;48.80;;;;;;;7.10;100.00;101247.63;5007690;28;20042;-89
2020/12/16 03:48:39;;;;;;;96.90;49.85;;;;;;;7.09;100.00;101250.44;5000914;28;20046;-85
2020/12/16 03:51:13;;;;;;;87.38;46.38;;;;;;;7.05;100.00;101244.53;4984061;28;20046;-86
2020/12/16 03:53:40;;;;;;;92.15;46.85;;;;;;;7.03;100.00;101245.63;4996529;28;20041;-87
2020/12/16 03:56:10;;;;;;;93.93;48.22;;;;;;;6.97;100.00;101237.16;5002483;28;20038;-86
2020/12/16 03:58:46;;;;;;;93.50;47.40;;;;;;;6.93;100.00;101233.06;4971879;28;20049;-86
2020/12/16 04:01:15;;;;;;;93.03;47.03;;;;;;;6.85;100.00;101232.88;4989600;28;20038;-86
2020/12/16 04:03:42;;;;;;;94.53;45.88;;;;;;;6.82;100.00;101238.47;4987495;28;20042;-86
2020/12/16 04:06:12;;;;;;;95.20;46.28;;;;;;;6.75;100.00;101223.94;4988202;28;20038;-85
2020/12/16 04:08:43;;;;;;;101.25;46.88;;;;;;;6.71;100.00;101230.50;5001978;28;20336;-87
2020/12/16 04:11:11;;;;;;;95.80;48.70;;;;;;;6.66;100.00;101232.72;4965962;28;20027;-86
2020/12/16 04:13:38;;;;;;;100.93;47.30;;;;;;;6.58;100.00;101245.84;5006055;28;21413;-84
2020/12/16 04:16:08;;;;;;;107.35;50.75;;;;;;;6.59;100.00;101236.84;5006789;28;20042;-84
2020/12/16 04:18:34;;;;;;;108.70;49.45;;;;;;;6.55;100.00;101238.94;4986527;28;20030;-85
2020/12/16 04:20:59;;;;;;;112.68;52.05;;;;;;;6.53;100.00;101240.88;4989297;28;20038;-84
2020/12/16 04:23:26;;;;;;;113.50;52.65;;;;;;;6.51;100.00;101241.00;4967378;28;20050;-83
2020/12/16 04:25:51;;;;;;;108.47;52.85;;;;;;;6.52;100.00;101252.53;4992858;28;20499;-86
2020/12/16 04:28:16;;;;;;;109.97;52.42;;;;;;;6.51;100.00;101251.69;4986285;28;20053;-85
2020/12/16 04:30:44;;;;;;;111.63;50.00;;;;;;;6.49;100.00;101256.28;5009713;28;20104;-84
2020/12/16 04:33:09;;;;;;;106.82;49.88;;;;;;;6.46;100.00;101259.19;5009475;28;20038;-85
2020/12/16 04:35:34;;;;;;;109.00;50.60;;;;;;;6.43;100.00;101264.78;4990446;28;20377;-86
2020/12/16 04:38:03;;;;;;;115.97;52.78;;;;;;;6.41;100.00;101265.88;4989608;28;20050;-83
2020/12/16 04:40:28;;;;;;;108.45;51.17;;;;;;;6.36;100.00;101260.06;5006873;28;20068;-85
2020/12/16 04:43:19;;;;;;;123.60;45.85;;;;;;;6.22;100.00;101274.53;4990783;28;20488;-82
2020/12/16 04:45:48;;;;;;;108.78;49.45;;;;;;;6.16;100.00;101278.56;4968877;28;20096;-85
2020/12/16 04:48:14;;;;;;;126.32;52.03;;;;;;;6.12;100.00;101274.44;4991447;28;20034;-87
2020/12/16 04:50:42;;;;;;;112.13;51.38;;;;;;;6.08;100.00;101284.50;4989903;28;20045;-89
2020/12/16 04:53:17;;;;;;;125.90;50.88;;;;;;;6.01;100.00;101279.75;4991081;28;20038;-88
2020/12/16 04:55:46;;;;;;;130.15;53.42;;;;;;;5.98;100.00;101277.34;4996789;28;20053;-85
2020/12/16 04:58:11;;;;;;;114.22;51.70;;;;;;;5.89;100.00;101269.09;4991117;28;20038;-83
2020/12/16 05:00:37;;;;;;;113.43;48.15;;;;;;;5.81;100.00;101262.69;4991111;28;20401;-85
2020/12/16 05:03:09;;;;;;;138.27;50.60;;;;;;;5.74;100.00;101269.47;5008756;28;20046;-87
2020/12/16 05:05:35;;;;;;;356.92;65.63;;;;;;;5.61;100.00;101264.25;5005525;28;20500;-85
2020/12/16 05:08:11;;;;;;;279.25;59.78;;;;;;;5.52;100.00;101263.16;4992023;28;20065;-88
2020/12/16 05:10:39;;;;;;;409.00;67.05;;;;;;;5.45;100.00;101269.94;5003654;28;20038;-85
2020/12/16 05:13:20;;;;;;;429.25;74.43;;;;;;;5.46;100.00;101273.44;4988485;28;20053;-85
2020/12/16 05:15:49;;;;;;;395.80;66.82;;;;;;;5.35;100.00;101276.94;5001328;28;20084;-86
2020/12/16 05:18:14;;;;;;;325.73;61.33;;;;;;;5.25;100.00;101271.47;4999133;28;20484;-85
2020/12/16 05:20:49;;;;;;;344.75;65.80;;;;;;;5.19;100.00;101278.13;4997772;28;20076;-83
2020/12/16 05:23:16;;;;;;;303.50;59.17;;;;;;;5.11;100.00;101277.84;5005472;28;20076;-85
2020/12/16 05:25:59;;;;;;;378.95;65.88;;;;;;;5.03;100.00;101271.44;5000821;28;20496;-84
2020/12/16 05:28:27;;;;;;;410.80;68.45;;;;;;;4.92;100.00;101280.19;4987009;28;20054;-83
2020/12/16 05:30:54;;;;;;;357.30;62.60;;;;;;;4.87;100.00;101277.06;5005601;28;20056;-85
2020/12/16 05:33:20;;;;;;;379.08;66.30;;;;;;;4.81;100.00;101277.53;4988646;28;20129;-83
2020/12/16 05:35:56;;;;;;;308.33;59.00;;;;;;;4.69;100.00;101272.16;5006497;28;20050;-85
2020/12/16 05:38:23;;;;;;;398.17;67.68;;;;;;;4.60;100.00;101259.53;4990970;28;20043;-84
2020/12/16 05:40:49;;;;;;;406.02;69.95;;;;;;;4.58;100.00;101256.16;4986167;28;20065;-88
2020/12/16 05:43:28;;;;;;;226.13;55.65;;;;;;;4.51;100.00;101263.72;4987353;28;20042;-83
2020/12/16 05:45:54;;;;;;;288.02;64.72;;;;;;;4.46;100.00;101262.38;4998377;28;20423;-84
2020/12/16 05:48:28;;;;;;;153.70;50.67;;;;;;;4.42;100.00;101260.91;4992947;28;20504;-84
2020/12/16 05:50:56;;;;;;;142.60;54.25;;;;;;;4.41;100.00;101269.84;5001694;28;20108;-87
2020/12/16 05:53:24;;;;;;;174.52;55.60;;;;;;;4.37;100.00;101263.06;5001527;28;20049;-86
2020/12/16 05:56:00;;;;;;;188.25;64.38;;;;;;;4.49;100.00;101263.00;4989905;28;20443;-84
2020/12/16 05:58:28;;;;;;;197.50;61.42;;;;;;;4.43;100.00;101267.91;4991600;28;20045;-86
2020/12/16 06:01:02;;;;;;;152.55;57.63;;;;;;;4.41;100.00;101269.84;5009421;28;20104;-85
2020/12/16 06:03:36;;;;;;;136.63;50.28;;;;;;;4.35;100.00;101270.31;5001459;28;20150;-85
2020/12/16 06:06:03;;;;;;;124.93;51.75;;;;;;;4.30;100.00;101271.47;4967391;28;20042;-85
2020/12/16 06:08:35;;;;;;;136.57;51.15;;;;;;;4.28;100.00;101275.19;5004240;28;20054;-87
2020/12/16 06:11:03;;;;;;;201.75;57.30;;;;;;;4.22;100.00;101276.50;5009242;28;20370;-84
2020/12/16 06:13:28;;;;;;;160.52;53.85;;;;;;;4.16;100.00;101278.75;5001703;28;20492;-86
2020/12/16 06:16:04;;;;;;;184.63;52.10;;;;;;;4.17;100.00;101283.97;5006970;28;20107;-85
2020/12/16 06:18:37;;;;;;;187.73;57.33;;;;;;;4.20;100.00;101283.75;5008979;28;20136;-82
2020/12/16 06:21:04;;;;;;;163.48;51.30;;;;;;;4.18;100.00;101280.34;4989391;28;20041;-84
2020/12/16 06:23:33;;;;;;;111.47;44.50;;;;;;;4.12;100.00;101278.13;5007884;28;20045;-83
2020/12/16 06:26:00;;;;;;;126.68;45.20;;;;;;;4.11;100.00;101281.72;4988300;28;20049;-85
2020/12/16 06:28:27;;;;;;;212.07;52.55;;;;;;;4.04;100.00;101288.47;4987302;28;20510;-87
2020/12/16 06:31:17;;;;;;;197.88;50.42;;;;;;;3.99;100.00;101279.97;4990221;28;20373;-83
2020/12/16 06:33:50;;;;;;;185.57;50.72;;;;;;;3.94;100.00;101282.97;4974235;28;20069;-85
2020/12/16 06:36:17;;;;;;;176.27;50.58;;;;;;;3.90;100.00;101277.97;4997789;28;20038;-86
2020/12/16 06:38:44;;;;;;;115.55;43.67;;;;;;;3.86;100.00;101279.16;5005867;28;20135;-85
2020/12/16 06:41:12;;;;;;;99.78;41.25;;;;;;;3.84;100.00;101288.06;5000705;28;20132;-84
2020/12/16 06:43:39;;;;;;;131.23;45.95;;;;;;;3.86;100.00;101297.75;5011665;28;20100;-83
2020/12/16 06:46:30;;;;;;;120.28;49.83;;;;;;;3.88;100.00;101299.31;4993574;28;20048;-83
2020/12/16 06:49:02;;;;;;;135.25;46.50;;;;;;;3.83;100.00;101298.81;4988866;28;20484;-85
2020/12/16 06:51:35;;;;;;;166.60;54.40;;;;;;;3.81;100.00;101290.94;5006755;28;20511;-84
2020/12/16 06:54:07;;;;;;;256.63;74.15;;;;;;;3.95;100.00;101297.09;5010289;28;20042;-87
2020/12/16 06:56:33;;;;;;;255.32;60.78;;;;;;;3.94;100.00;101304.22;5005484;28;20045;-84
2020/12/16 06:58:59;;;;;;;152.13;58.47;;;;;;;3.89;100.00;101310.81;4983967;28;20092;-83
2020/12/16 07:01:24;;;;;;;112.10;44.15;;;;;;;3.80;100.00;101301.69;5005957;28;20152;-86
2020/12/16 07:03:50;;;;;;;127.47;51.33;;;;;;;3.78;100.00;101319.53;4976135;28;20084;-83
2020/12/16 07:06:27;;;;;;;153.48;58.25;;;;;;;3.81;100.00;101312.19;4990837;28;20466;-83
2020/12/16 07:09:21;;;;;;;184.10;63.03;;;;;;;3.83;100.00;101318.25;4990151;28;20523;-86
2020/12/16 07:11:54;;;;;;;186.77;57.50;;;;;;;3.82;100.00;101316.53;4976531;28;20108;-87
2020/12/16 07:14:25;;;;;;;180.32;62.15;;;;;;;3.88;100.00;101312.59;4989711;28;20283;-83
2020/12/16 07:16:51;;;;;;;250.50;70.53;;;;;;;3.92;100.00;101321.22;4981045;28;20540;-86
2020/12/16 07:19:28;;;;;;;465.73;101.70;;;;;;;3.97;100.00;101309.31;4985319;28;20080;-83
2020/12/16 07:21:55;;;;;;;461.23;90.70;;;;;;;4.01;100.00;101304.63;4992711;28;20046;-84
2020/12/16 07:24:22;;;;;;;481.92;86.28;;;;;;;4.00;100.00;101309.09;4992661;28;20040;-83
2020/12/16 07:26:55;;;;;;;579.55;92.57;;;;;;;4.01;100.00;101310.78;4987250;28;20034;-86
2020/12/16 07:29:36;;;;;;;648.67;120.40;;;;;;;4.05;100.00;101309.59;4990580;28;20543;-84
2020/12/16 07:32:12;;;;;;;683.03;117.82;;;;;;;4.01;100.00;101313.44;4986858;28;20037;-85
2020/12/16 07:34:59;;;;;;;648.13;117.00;;;;;;;4.07;100.00;101314.81;4987966;28;20045;-85
2020/12/16 07:37:30;;;;;;;538.65;115.80;;;;;;;4.14;100.00;101328.47;5009432;28;20061;-85
2020/12/16 07:39:57;;;;;;;493.23;102.50;;;;;;;4.15;100.00;101320.41;5010760;28;20485;-84
2020/12/16 07:42:23;;;;;;;410.33;94.28;;;;;;;4.19;100.00;101319.22;4998212;28;20105;-83
2020/12/16 07:44:49;;;;;;;486.15;102.15;;;;;;;4.24;100.00;101317.09;5000801;28;20508;-86
2020/12/16 07:47:15;;;;;;;488.50;99.85;;;;;;;4.22;100.00;101324.31;4991776;28;20381;-84
2020/12/16 07:49:41;;;;;;;439.23;98.75;;;;;;;4.22;100.00;101334.09;4989533;28;20131;-83
2020/12/16 07:52:07;;;;;;;429.92;100.00;;;;;;;4.26;100.00;101331.13;4989269;28;20050;-87
2020/12/16 07:54:32;;;;;;;357.27;92.70;;;;;;;4.27;100.00;101321.34;4985317;28;20056;-87
2020/12/16 07:56:59;;;;;;;538.10;121.30;;;;;;;4.29;100.00;101322.94;5000687;28;20038;-82
2020/12/16 07:59:33;;;;;;;526.40;116.68;;;;;;;4.30;100.00;101318.47;4991713;28;21391;-83
2020/12/16 08:02:07;;;;;;;429.65;108.55;;;;;;;4.33;100.00;101325.38;4993066;28;20049;-82
2020/12/16 08:04:33;;;;;;;446.33;122.90;;;;;;;4.32;100.00;101324.53;4998066;28;20053;-85
2020/12/16 08:07:19;;;;;;;559.13;130.32;;;;;;;4.34;100.00;101321.75;4987433;28;20046;-83
2020/12/16 08:09:51;;;;;;;460.95;107.03;;;;;;;4.35;100.00;101324.28;4984993;28;20066;-85
2020/12/16 08:12:18;;;;;;;534.22;134.90;;;;;;;4.34;100.00;101316.41;4988925;28;20030;-87
2020/12/16 08:14:44;;;;;;;575.20;141.02;;;;;;;4.32;100.00;101323.69;4985776;28;20516;-84
2020/12/16 08:17:09;;;;;;;476.25;135.63;;;;;;;4.29;100.00;101322.94;4953269;28;20065;-86
2020/12/16 08:19:35;;;;;;;672.47;182.27;;;;;;;4.33;100.00;101315.59;4997445;28;20502;-85
2020/12/16 08:22:13;;;;;;;479.35;136.52;;;;;;;4.36;100.00;101319.81;4988360;28;20129;-86
2020/12/16 08:24:39;;;;;;;494.05;132.23;;;;;;;4.40;100.00;101318.63;5005157;28;20094;-83
2020/12/16 08:27:04;;;;;;;461.25;125.50;;;;;;;4.42;100.00;101314.91;4999429;28;20051;-85
2020/12/16 08:29:32;;;;;;;325.40;92.93;;;;;;;4.44;100.00;101322.78;4984585;28;20129;-85
2020/12/16 08:31:58;;;;;;;367.42;102.40;;;;;;;4.49;100.00;101328.63;5003378;28;20030;-85
2020/12/16 08:34:26;;;;;;;379.67;126.88;;;;;;;4.53;100.00;101327.41;5000954;28;20050;-86
2020/12/16 08:36:56;;;;;;;294.60;101.70;;;;;;;4.58;100.00;101313.81;5002127;28;20034;-84
2020/12/16 08:39:27;;;;;;;258.02;91.43;;;;;;;4.62;100.00;101316.09;4975175;28;20047;-85
2020/12/16 08:41:55;;;;;;;205.50;81.72;;;;;;;4.70;100.00;101319.06;4993011;28;20050;-83
2020/12/16 08:44:22;;;;;;;206.23;79.43;;;;;;;4.77;100.00;101318.59;4984722;28;20070;-84
2020/12/16 08:46:50;;;;;;;198.98;76.78;;;;;;;4.82;100.00;101321.75;5006639;28;20067;-85
2020/12/16 08:49:22;;;;;;;173.43;70.80;;;;;;;4.88;100.00;101311.50;4976817;28;20049;-83
2020/12/16 08:51:50;;;;;;;170.35;68.78;;;;;;;4.94;100.00;101327.00;4973765;28;20445;-85
2020/12/16 08:54:27;;;;;;;166.25;68.18;;;;;;;5.02;100.00;101318.47;4988371;28;20042;-86
2020/12/16 08:56:58;;;;;;;185.98;71.03;;;;;;;5.10;100.00;101328.53;5003655;28;20141;-84
2020/12/16 08:59:26;;;;;;;170.63;69.38;;;;;;;5.16;100.00;101325.41;4990741;28;20770;-82
2020/12/16 09:01:55;;;;;;;174.25;72.18;;;;;;;5.20;100.00;101316.22;4989975;28;20073;-84
2020/12/16 09:04:27;;;;;;;170.45;70.30;;;;;;;5.25;100.00;101322.03;5010788;28;20040;-84
2020/12/16 09:07:10;;;;;;;157.52;64.78;;;;;;;5.29;100.00;101320.81;5012500;28;20456;-86
2020/12/16 09:09:58;;;;;;;168.23;67.40;;;;;;;5.35;100.00;101325.72;5008091;28;20033;-83
2020/12/16 09:12:25;;;;;;;168.30;70.13;;;;;;;5.40;100.00;101323.53;4970937;28;20089;-85
2020/12/16 09:14:58;;;;;;;182.35;68.28;;;;;;;5.44;100.00;101318.84;4999634;28;20033;-84
2020/12/16 09:17:25;;;;;;;153.63;65.35;;;;;;;5.49;100.00;101326.44;4999192;28;20042;-85
2020/12/16 09:19:53;;;;;;;148.75;60.10;;;;;;;5.53;100.00;101330.59;5010600;28;20061;-85
2020/12/16 09:22:33;;;;;;;161.73;67.65;;;;;;;5.60;100.00;101345.94;4990834;28;20050;-86
2020/12/16 09:25:02;;;;;;;;;;;;;;;5.64;100.00;101336.78;4992730;28;20037;-83
2020/12/16 09:27:28;;;;;;;165.77;69.63;;;;;;;5.65;100.00;101326.97;4991226;28;20008;-85
2020/12/16 09:29:58;;;;;;;167.10;73.70;;;;;;;5.75;100.00;101321.75;4976748;28;20404;-83
2020/12/16 09:32:29;;;;;;;170.70;80.22;;;;;;;5.83;100.00;101314.84;4985672;28;20050;-86
2020/12/16 09:35:01;;;;;;;161.82;70.95;;;;;;;5.90;100.00;101312.59;4993480;28;20641;-86
2020/12/16 09:37:36;;;;;;;140.02;64.63;;;;;;;5.98;100.00;101307.50;4985839;28;20068;-86
2020/12/16 09:40:15;;;;;;;139.98;63.63;;;;;;;6.01;100.00;101309.94;4987042;28;20049;-85
2020/12/16 09:42:53;;;;;;;138.32;57.67;;;;;;;6.05;100.00;101305.22;4985916;28;20052;-84
2020/12/16 09:45:20;;;;;;;131.18;62.10;;;;;;;6.08;100.00;101304.97;4990403;28;20117;-86
2020/12/16 09:47:52;;;;;;;125.50;58.50;;;;;;;6.18;100.00;101307.72;4991901;28;20057;-87
2020/12/16 09:50:27;;;;;;;120.07;57.72;;;;;;;6.21;100.00;101312.81;4992603;28;20041;-84
2020/12/16 09:53:07;;;;;;;115.47;54.60;;;;;;;6.25;100.00;101309.78;5004507;28;20038;-85
2020/12/16 09:55:40;;;;;;;113.72;54.92;;;;;;;6.30;100.00;101306.72;4996774;28;20560;-86
2020/12/16 09:58:13;;;;;;;114.88;58.63;;;;;;;6.39;100.00;101300.69;5003376;28;20077;-84
2020/12/16 10:00:43;;;;;;;111.75;55.78;;;;;;;6.47;100.00;101292.91;5003195;28;20404;-85
2020/12/16 10:03:11;;;;;;;99.60;51.45;;;;;;;6.55;100.00;101289.59;5008009;28;20395;-84
2020/12/16 10:05:38;;;;;;;91.50;50.45;;;;;;;6.60;100.00;101290.06;4992295;28;20046;-85
2020/12/16 10:08:11;;;;;;;94.82;51.40;;;;;;;6.66;100.00;101286.91;4997717;28;20050;-85
2020/12/16 10:10:39;;;;;;;79.43;46.97;;;;;;;6.75;100.00;101290.63;4998950;28;20046;-87
2020/12/16 10:13:14;;;;;;;94.35;50.13;;;;;;;6.83;100.00;101288.16;4982246;28;20093;-85
2020/12/16 10:15:41;;;;;;;70.82;42.20;;;;;;;6.93;100.00;101288.22;4980249;28;20129;-84
2020/12/16 10:18:08;;;;;;;70.78;42.88;;;;;;;6.97;100.00;101290.53;4976195;28;20060;-85
2020/12/16 10:20:35;;;;;;;62.33;38.47;;;;;;;7.01;100.00;101291.94;4985475;28;20078;-85
2020/12/16 10:23:02;;;;;;;57.78;35.42;;;;;;;7.11;100.00;101275.19;4976042;28;20554;-86
2020/12/16 10:25:36;;;;;;;51.72;32.42;;;;;;;7.14;100.00;101280.25;5000574;28;20053;-84
2020/12/16 10:28:05;;;;;;;46.78;30.88;;;;;;;7.21;100.00;101271.59;4990774;28;20117;-82
2020/12/16 10:30:31;;;;;;;;;;;;;;;7.32;100.00;101268.00;4972750;28;20062;-83
2020/12/16 10:32:57;;;;;;;47.60;28.08;;;;;;;7.30;100.00;101271.78;5005127;28;19913;-87
2020/12/16 10:35:24;;;;;;;38.72;25.63;;;;;;;7.37;100.00;101263.13;4989259;28;20060;-85
2020/12/16 10:37:52;;;;;;;35.83;24.55;;;;;;;7.45;100.00;101260.63;4992429;28;20034;-84
2020/12/16 10:40:18;;;;;;;30.85;22.35;;;;;;;7.53;100.00;101267.97;5005958;28;20040;-84
2020/12/16 10:42:44;;;;;;;31.13;21.20;;;;;;;7.64;100.00;101267.03;4990803;28;20044;-83
2020/12/16 10:45:15;;;;;;;31.10;19.27;;;;;;;7.70;100.00;101258.50;4993589;28;20081;-86
2020/12/16 10:47:42;;;;;;;25.50;18.75;;;;;;;7.81;100.00;101261.06;5007195;28;20041;-85
2020/12/16 10:50:08;;;;;;;26.50;17.95;;;;;;;7.87;100.00;101249.00;4977807;28;20069;-84
2020/12/16 10:52:34;;;;;;;24.27;16.90;;;;;;;7.98;100.00;101259.59;4991263;28;20042;-84
2020/12/16 10:55:00;;;;;;;22.85;15.43;;;;;;;8.06;100.00;101257.09;4993475;28;20046;-87
2020/12/16 10:57:26;;;;;;;23.38;15.90;;;;;;;8.11;100.00;101256.66;4976767;28;20037;-83
2020/12/16 10:59:51;;;;;;;19.60;14.75;;;;;;;8.18;100.00;101249.78;4992950;28;20392;-84
2020/12/16 11:02:17;;;;;;;21.27;15.02;;;;;;;8.25;100.00;101248.25;4991857;28;20038;-82
2020/12/16 11:04:44;;;;;;;21.40;14.52;;;;;;;8.33;100.00;101259.09;4975401;28;20056;-85
2020/12/16 11:07:10;;;;;;;17.98;13.70;;;;;;;8.39;100.00;101257.72;5004256;28;20038;-83
2020/12/16 11:09:37;;;;;;;19.33;14.45;;;;;;;8.44;100.00;101255.50;5000815;28;20042;-86